San Diego International Airport
KSAN : now visible

Airfield :











YOU CAN JOIN US ON...

 
LOGIN :

Register | Disclaimer

   EN    FR    IT 

 









Legend :    VFR   Marginal VFR   IFR   Intensive IFR   Very Intensive IFR
Visi :
Ceiling :
>= 8 km
>= 3000ft
5 to 8 km
1000 to 3000 ft
1500m to 5 km
500 to 1000 ft
800 to 1500m
200 to 500 ft
< 800m
< 200 ft
Symbols :   Thunderstorms  Fog  Heavy snow  Heavy precipitations  Wind > 20 kt







- Airport Elevation : 17 ft
- IATA code : SAN


KSAN - San Diego International

CURRENT METAR :
  • 260651Z 24005KT 10SM BKN025 17/11 A2992 RMK AO2 SLP130 T01670111

EXPIRED METARs :
  • 260551Z 24003KT 10SM BKN023 17/11 A2992 RMK AO2 SLP131 T01670111 10200 20167 50002
  • 260451Z 30003KT 10SM BKN023 17/11 A2992 RMK AO2 SLP133 T01670106

TAF KSAN
Valid from the 26 at 06:00 until the 27 at 12:00 UTC


260528Z 2606/2712 VRB04KT P6SM BKN025
FM261200 19006KT P6SM -SHRA OVC018
FM261800 25009KT P6SM VCSH BKN025
FM270300 23011KT P6SM -SHRA OVC018
FM270600 29011KT P6SM SCT018 BKN035
KZLA FIR / North America



MET'MAP, your aeronautical weather chart ! - Copyright ORBIFLY December 2007 - Disclaimer

ORBIFLY MET'MAP TEAM :

Programming & Development : Alexandra Zaïnal
Concept & Development : Baudouin d'Aumeries
Co-Development & Prog : Marc-Olivier Méhu
Technical & hardware support : Manuel Goepfert

Contact : metmap@orbifly.com




SOURCES & CREDITS :

   NOAA       Earth
Advisory